Union Cross, North Carolina
Current Conditions -  °F | °C
As of 9:54 AM on Wednesday 22 Oct 2014 (Local Time) from KGSO Reporting Station
Few Clouds Few Clouds  
Wind Chill: 54°   Ceiling: Unl
Heat Index: 54°   Visibility: 10mi
Dew Point: 38°   Wind: 8mph
Humidity: 55%   Direction: 310°NW
Pressure: 30.04"   Gusts: NA
Location:  36.1188°N, 80.075°W
Report Text: KGSO 221354Z 31007KT 10SM FEW050 12/03 A3004 RMK AO2 SLP170 T01220033
Loading
Personal Weather Stations






























Interactive Weather Map
Tropical Storm Tracking
New forecast layout! Learn more

10-Day Weather Forecast

Advertisements
Track Severe Weather on mobile